sensor_id;sensor_type;location;lat;lon;timestamp;P1;durP1;ratioP1;P2;durP2;ratioP2
6519;SDS011;3293;51.690;5.982;2023-06-14T00:00:46;6.07;;;5.05;;
6519;SDS011;3293;51.690;5.982;2023-06-14T00:05:48;7.30;;;4.72;;
6519;SDS011;3293;51.690;5.982;2023-06-14T00:10:49;6.72;;;4.57;;
6519;SDS011;3293;51.690;5.982;2023-06-14T00:15:48;6.18;;;4.60;;
6519;SDS011;3293;51.690;5.982;2023-06-14T00:20:49;6.65;;;4.47;;
6519;SDS011;3293;51.690;5.982;2023-06-14T00:25:51;8.93;;;4.40;;
6519;SDS011;3293;51.690;5.982;2023-06-14T00:30:51;6.53;;;4.38;;
6519;SDS011;3293;51.690;5.982;2023-06-14T00:35:51;6.40;;;4.88;;
6519;SDS011;3293;51.690;5.982;2023-06-14T00:40:53;12.95;;;4.80;;
6519;SDS011;3293;51.690;5.982;2023-06-14T00:45:53;6.50;;;4.50;;
6519;SDS011;3293;51.690;5.982;2023-06-14T00:50:54;6.80;;;4.60;;
6519;SDS011;3293;51.690;5.982;2023-06-14T00:55:54;7.63;;;4.82;;
6519;SDS011;3293;51.690;5.982;2023-06-14T01:00:54;9.10;;;4.75;;
6519;SDS011;3293;51.690;5.982;2023-06-14T01:06:41;7.70;;;4.28;;
6519;SDS011;3293;51.690;5.982;2023-06-14T01:11:27;5.85;;;4.47;;
6519;SDS011;3293;51.690;5.982;2023-06-14T01:16:31;5.53;;;4.35;;
6519;SDS011;3293;51.690;5.982;2023-06-14T01:21:31;7.78;;;4.78;;
6519;SDS011;3293;51.690;5.982;2023-06-14T01:26:36;7.93;;;4.75;;
6519;SDS011;3293;51.690;5.982;2023-06-14T01:31:38;6.35;;;4.47;;
6519;SDS011;3293;51.690;5.982;2023-06-14T01:36:41;6.22;;;4.45;;
6519;SDS011;3293;51.690;5.982;2023-06-14T01:41:42;5.68;;;5.07;;
6519;SDS011;3293;51.690;5.982;2023-06-14T01:46:44;5.95;;;4.00;;
6519;SDS011;3293;51.690;5.982;2023-06-14T01:51:45;6.00;;;4.18;;
6519;SDS011;3293;51.690;5.982;2023-06-14T01:56:45;8.43;;;4.65;;
6519;SDS011;3293;51.690;5.982;2023-06-14T02:01:45;7.68;;;4.32;;
6519;SDS011;3293;51.690;5.982;2023-06-14T02:06:45;6.80;;;4.28;;
6519;SDS011;3293;51.690;5.982;2023-06-14T02:11:45;8.68;;;4.07;;
6519;SDS011;3293;51.690;5.982;2023-06-14T02:16:45;7.05;;;4.38;;
6519;SDS011;3293;51.690;5.982;2023-06-14T02:21:48;5.20;;;4.20;;
6519;SDS011;3293;51.690;5.982;2023-06-14T02:26:49;6.35;;;4.90;;
6519;SDS011;3293;51.690;5.982;2023-06-14T02:31:49;6.88;;;4.00;;
6519;SDS011;3293;51.690;5.982;2023-06-14T02:36:49;7.20;;;4.25;;
6519;SDS011;3293;51.690;5.982;2023-06-14T02:41:49;5.75;;;4.00;;
6519;SDS011;3293;51.690;5.982;2023-06-14T02:46:49;6.47;;;4.82;;
6519;SDS011;3293;51.690;5.982;2023-06-14T02:51:49;5.63;;;4.20;;
6519;SDS011;3293;51.690;5.982;2023-06-14T02:56:49;5.20;;;3.92;;
6519;SDS011;3293;51.690;5.982;2023-06-14T03:01:50;6.55;;;4.13;;
6519;SDS011;3293;51.690;5.982;2023-06-14T03:06:50;6.93;;;4.10;;
6519;SDS011;3293;51.690;5.982;2023-06-14T03:11:49;5.23;;;4.20;;
6519;SDS011;3293;51.690;5.982;2023-06-14T03:16:50;7.80;;;4.43;;
6519;SDS011;3293;51.690;5.982;2023-06-14T03:21:50;11.00;;;4.57;;
6519;SDS011;3293;51.690;5.982;2023-06-14T03:26:50;8.90;;;4.53;;
6519;SDS011;3293;51.690;5.982;2023-06-14T03:31:57;7.23;;;4.80;;
6519;SDS011;3293;51.690;5.982;2023-06-14T03:36:58;8.10;;;4.33;;
6519;SDS011;3293;51.690;5.982;2023-06-14T03:41:58;8.63;;;4.47;;
6519;SDS011;3293;51.690;5.982;2023-06-14T03:46:58;5.03;;;4.13;;
6519;SDS011;3293;51.690;5.982;2023-06-14T03:51:58;4.93;;;4.20;;
6519;SDS011;3293;51.690;5.982;2023-06-14T03:56:58;8.73;;;4.00;;
6519;SDS011;3293;51.690;5.982;2023-06-14T04:01:59;7.07;;;4.55;;
6519;SDS011;3293;51.690;5.982;2023-06-14T04:06:59;4.45;;;4.05;;
6519;SDS011;3293;51.690;5.982;2023-06-14T04:11:59;7.53;;;4.10;;
6519;SDS011;3293;51.690;5.982;2023-06-14T04:16:59;5.38;;;4.05;;
6519;SDS011;3293;51.690;5.982;2023-06-14T04:22:00;7.68;;;4.30;;
6519;SDS011;3293;51.690;5.982;2023-06-14T04:27:01;12.60;;;4.32;;
6519;SDS011;3293;51.690;5.982;2023-06-14T04:32:01;6.93;;;3.72;;
6519;SDS011;3293;51.690;5.982;2023-06-14T04:37:02;4.78;;;3.92;;
6519;SDS011;3293;51.690;5.982;2023-06-14T04:42:02;7.38;;;4.07;;
6519;SDS011;3293;51.690;5.982;2023-06-14T04:47:02;3.92;;;3.45;;
6519;SDS011;3293;51.690;5.982;2023-06-14T04:52:03;4.97;;;3.72;;
6519;SDS011;3293;51.690;5.982;2023-06-14T04:57:04;7.85;;;3.97;;
6519;SDS011;3293;51.690;5.982;2023-06-14T05:02:04;5.90;;;3.55;;
6519;SDS011;3293;51.690;5.982;2023-06-14T05:07:06;6.70;;;4.00;;
6519;SDS011;3293;51.690;5.982;2023-06-14T05:12:08;7.22;;;3.85;;
6519;SDS011;3293;51.690;5.982;2023-06-14T05:17:09;5.93;;;3.50;;
6519;SDS011;3293;51.690;5.982;2023-06-14T05:22:09;5.53;;;3.50;;
6519;SDS011;3293;51.690;5.982;2023-06-14T05:27:09;4.95;;;3.40;;
6519;SDS011;3293;51.690;5.982;2023-06-14T05:32:10;9.13;;;3.55;;
6519;SDS011;3293;51.690;5.982;2023-06-14T05:37:10;4.10;;;3.40;;
6519;SDS011;3293;51.690;5.982;2023-06-14T05:42:10;4.55;;;3.42;;
6519;SDS011;3293;51.690;5.982;2023-06-14T05:47:10;5.28;;;3.72;;
6519;SDS011;3293;51.690;5.982;2023-06-14T05:52:10;6.57;;;3.40;;
6519;SDS011;3293;51.690;5.982;2023-06-14T05:57:12;6.85;;;3.63;;
6519;SDS011;3293;51.690;5.982;2023-06-14T06:02:12;7.63;;;3.22;;
6519;SDS011;3293;51.690;5.982;2023-06-14T06:07:13;4.10;;;3.28;;
6519;SDS011;3293;51.690;5.982;2023-06-14T06:12:12;4.80;;;3.45;;
6519;SDS011;3293;51.690;5.982;2023-06-14T06:17:12;9.55;;;3.10;;
6519;SDS011;3293;51.690;5.982;2023-06-14T06:22:12;5.25;;;3.55;;
6519;SDS011;3293;51.690;5.982;2023-06-14T06:27:12;6.22;;;3.20;;
6519;SDS011;3293;51.690;5.982;2023-06-14T06:32:12;8.63;;;3.78;;
6519;SDS011;3293;51.690;5.982;2023-06-14T06:37:13;7.32;;;3.38;;
6519;SDS011;3293;51.690;5.982;2023-06-14T06:42:13;4.80;;;3.33;;
6519;SDS011;3293;51.690;5.982;2023-06-14T06:47:13;5.22;;;3.33;;
6519;SDS011;3293;51.690;5.982;2023-06-14T06:52:13;9.00;;;3.30;;
6519;SDS011;3293;51.690;5.982;2023-06-14T06:57:13;6.38;;;3.53;;
6519;SDS011;3293;51.690;5.982;2023-06-14T07:02:14;3.65;;;2.95;;
6519;SDS011;3293;51.690;5.982;2023-06-14T07:07:14;6.18;;;2.92;;
6519;SDS011;3293;51.690;5.982;2023-06-14T07:12:15;5.95;;;2.72;;
6519;SDS011;3293;51.690;5.982;2023-06-14T07:17:15;6.65;;;2.75;;
6519;SDS011;3293;51.690;5.982;2023-06-14T07:22:15;5.00;;;2.70;;
6519;SDS011;3293;51.690;5.982;2023-06-14T07:27:16;4.40;;;2.70;;
6519;SDS011;3293;51.690;5.982;2023-06-14T07:32:16;5.55;;;2.25;;
6519;SDS011;3293;51.690;5.982;2023-06-14T07:37:16;3.22;;;2.25;;
6519;SDS011;3293;51.690;5.982;2023-06-14T07:42:16;5.68;;;2.10;;
6519;SDS011;3293;51.690;5.982;2023-06-14T07:47:16;5.85;;;2.08;;
6519;SDS011;3293;51.690;5.982;2023-06-14T07:52:17;2.28;;;2.00;;
6519;SDS011;3293;51.690;5.982;2023-06-14T07:57:19;5.70;;;2.25;;
6519;SDS011;3293;51.690;5.982;2023-06-14T08:02:19;2.97;;;1.80;;
6519;SDS011;3293;51.690;5.982;2023-06-14T08:07:19;3.65;;;1.85;;
6519;SDS011;3293;51.690;5.982;2023-06-14T08:12:20;2.72;;;1.98;;
6519;SDS011;3293;51.690;5.982;2023-06-14T08:17:20;2.15;;;1.38;;
6519;SDS011;3293;51.690;5.982;2023-06-14T08:22:20;1.60;;;1.50;;
6519;SDS011;3293;51.690;5.982;2023-06-14T08:27:21;2.85;;;2.20;;
6519;SDS011;3293;51.690;5.982;2023-06-14T08:32:22;1.80;;;1.70;;
6519;SDS011;3293;51.690;5.982;2023-06-14T08:37:22;2.78;;;1.80;;
6519;SDS011;3293;51.690;5.982;2023-06-14T08:42:22;2.85;;;2.00;;
6519;SDS011;3293;51.690;5.982;2023-06-14T08:47:24;3.05;;;1.70;;
6519;SDS011;3293;51.690;5.982;2023-06-14T08:52:26;3.83;;;2.10;;
6519;SDS011;3293;51.690;5.982;2023-06-14T08:57:30;2.17;;;1.60;;
6519;SDS011;3293;51.690;5.982;2023-06-14T09:02:31;3.20;;;1.90;;
6519;SDS011;3293;51.690;5.982;2023-06-14T09:07:34;1.95;;;1.75;;
6519;SDS011;3293;51.690;5.982;2023-06-14T09:12:35;5.88;;;2.13;;
6519;SDS011;3293;51.690;5.982;2023-06-14T09:17:36;4.15;;;2.10;;
6519;SDS011;3293;51.690;5.982;2023-06-14T09:22:37;3.45;;;2.42;;
6519;SDS011;3293;51.690;5.982;2023-06-14T09:27:37;2.47;;;2.20;;
6519;SDS011;3293;51.690;5.982;2023-06-14T09:32:39;2.70;;;1.80;;
6519;SDS011;3293;51.690;5.982;2023-06-14T09:37:39;4.85;;;2.10;;
6519;SDS011;3293;51.690;5.982;2023-06-14T09:42:39;4.40;;;2.10;;
6519;SDS011;3293;51.690;5.982;2023-06-14T09:47:41;3.15;;;2.20;;
6519;SDS011;3293;51.690;5.982;2023-06-14T09:52:46;2.17;;;1.98;;
6519;SDS011;3293;51.690;5.982;2023-06-14T09:57:50;4.03;;;2.20;;
6519;SDS011;3293;51.690;5.982;2023-06-14T10:02:54;4.38;;;2.10;;
6519;SDS011;3293;51.690;5.982;2023-06-14T10:07:58;7.80;;;2.40;;
6519;SDS011;3293;51.690;5.982;2023-06-14T10:13:04;9.82;;;2.30;;
6519;SDS011;3293;51.690;5.982;2023-06-14T10:18:21;4.93;;;2.00;;
6519;SDS011;3293;51.690;5.982;2023-06-14T10:23:27;6.30;;;2.10;;
6519;SDS011;3293;51.690;5.982;2023-06-14T10:28:30;4.05;;;1.80;;
6519;SDS011;3293;51.690;5.982;2023-06-14T10:33:33;3.28;;;1.65;;
6519;SDS011;3293;51.690;5.982;2023-06-14T10:38:40;4.88;;;1.98;;
6519;SDS011;3293;51.690;5.982;2023-06-14T10:43:42;2.17;;;1.98;;
6519;SDS011;3293;51.690;5.982;2023-06-14T10:48:44;3.83;;;2.10;;
6519;SDS011;3293;51.690;5.982;2023-06-14T10:53:44;2.55;;;1.90;;
6519;SDS011;3293;51.690;5.982;2023-06-14T10:58:49;5.05;;;1.70;;
6519;SDS011;3293;51.690;5.982;2023-06-14T11:03:50;2.22;;;2.00;;
6519;SDS011;3293;51.690;5.982;2023-06-14T11:13:55;3.10;;;2.15;;
6519;SDS011;3293;51.690;5.982;2023-06-14T11:18:56;4.30;;;2.00;;
6519;SDS011;3293;51.690;5.982;2023-06-14T11:23:57;3.42;;;2.00;;
6519;SDS011;3293;51.690;5.982;2023-06-14T11:29:01;3.38;;;1.90;;
6519;SDS011;3293;51.690;5.982;2023-06-14T11:34:01;2.05;;;1.85;;
6519;SDS011;3293;51.690;5.982;2023-06-14T11:39:06;3.65;;;2.10;;
6519;SDS011;3293;51.690;5.982;2023-06-14T11:44:10;2.60;;;2.40;;
6519;SDS011;3293;51.690;5.982;2023-06-14T11:49:11;2.25;;;2.00;;
6519;SDS011;3293;51.690;5.982;2023-06-14T11:54:11;3.35;;;2.13;;
6519;SDS011;3293;51.690;5.982;2023-06-14T11:59:13;2.42;;;2.05;;
6519;SDS011;3293;51.690;5.982;2023-06-14T12:04:23;2.85;;;2.20;;
6519;SDS011;3293;51.690;5.982;2023-06-14T12:09:26;3.30;;;2.20;;
6519;SDS011;3293;51.690;5.982;2023-06-14T12:14:29;2.22;;;2.00;;
6519;SDS011;3293;51.690;5.982;2023-06-14T12:19:32;3.88;;;2.00;;
6519;SDS011;3293;51.690;5.982;2023-06-14T12:24:33;2.00;;;1.58;;
6519;SDS011;3293;51.690;5.982;2023-06-14T12:29:35;7.32;;;2.20;;
6519;SDS011;3293;51.690;5.982;2023-06-14T12:34:35;5.97;;;2.20;;
6519;SDS011;3293;51.690;5.982;2023-06-14T12:39:37;2.47;;;1.85;;
6519;SDS011;3293;51.690;5.982;2023-06-14T12:44:40;2.38;;;1.63;;
6519;SDS011;3293;51.690;5.982;2023-06-14T12:49:40;2.10;;;1.90;;
6519;SDS011;3293;51.690;5.982;2023-06-14T12:54:42;2.95;;;1.60;;
6519;SDS011;3293;51.690;5.982;2023-06-14T12:59:46;2.85;;;1.50;;
6519;SDS011;3293;51.690;5.982;2023-06-14T13:04:46;2.17;;;1.70;;
6519;SDS011;3293;51.690;5.982;2023-06-14T13:09:47;3.08;;;1.65;;
6519;SDS011;3293;51.690;5.982;2023-06-14T13:14:48;4.00;;;1.60;;
6519;SDS011;3293;51.690;5.982;2023-06-14T13:19:50;6.22;;;1.60;;
6519;SDS011;3293;51.690;5.982;2023-06-14T13:24:52;2.47;;;1.50;;
6519;SDS011;3293;51.690;5.982;2023-06-14T13:29:53;3.33;;;1.30;;
6519;SDS011;3293;51.690;5.982;2023-06-14T13:34:56;2.50;;;1.58;;
6519;SDS011;3293;51.690;5.982;2023-06-14T13:39:56;1.23;;;1.15;;
6519;SDS011;3293;51.690;5.982;2023-06-14T13:44:56;2.75;;;1.80;;
6519;SDS011;3293;51.690;5.982;2023-06-14T13:49:58;1.45;;;1.35;;
6519;SDS011;3293;51.690;5.982;2023-06-14T13:55:02;2.10;;;1.70;;
6519;SDS011;3293;51.690;5.982;2023-06-14T14:00:05;3.55;;;1.77;;
6519;SDS011;3293;51.690;5.982;2023-06-14T14:05:11;1.58;;;1.48;;
6519;SDS011;3293;51.690;5.982;2023-06-14T14:10:14;2.35;;;1.60;;
6519;SDS011;3293;51.690;5.982;2023-06-14T14:15:14;11.88;;;1.85;;
6519;SDS011;3293;51.690;5.982;2023-06-14T14:20:16;2.80;;;1.73;;
6519;SDS011;3293;51.690;5.982;2023-06-14T14:25:18;3.42;;;1.45;;
6519;SDS011;3293;51.690;5.982;2023-06-14T14:30:19;2.40;;;1.70;;
6519;SDS011;3293;51.690;5.982;2023-06-14T14:35:23;3.05;;;1.60;;
6519;SDS011;3293;51.690;5.982;2023-06-14T14:40:26;3.17;;;1.58;;
6519;SDS011;3293;51.690;5.982;2023-06-14T14:45:27;2.83;;;1.42;;
6519;SDS011;3293;51.690;5.982;2023-06-14T14:50:31;4.18;;;1.70;;
6519;SDS011;3293;51.690;5.982;2023-06-14T14:55:32;4.72;;;2.15;;
6519;SDS011;3293;51.690;5.982;2023-06-14T15:00:34;2.35;;;1.77;;
6519;SDS011;3293;51.690;5.982;2023-06-14T15:05:36;2.30;;;1.73;;
6519;SDS011;3293;51.690;5.982;2023-06-14T15:10:38;3.38;;;1.70;;
6519;SDS011;3293;51.690;5.982;2023-06-14T15:15:42;1.77;;;1.67;;
6519;SDS011;3293;51.690;5.982;2023-06-14T15:20:44;5.30;;;2.03;;
6519;SDS011;3293;51.690;5.982;2023-06-14T15:25:45;2.05;;;1.80;;
6519;SDS011;3293;51.690;5.982;2023-06-14T15:30:51;3.38;;;2.17;;
6519;SDS011;3293;51.690;5.982;2023-06-14T15:35:52;3.13;;;2.25;;
6519;SDS011;3293;51.690;5.982;2023-06-14T15:40:53;2.70;;;2.08;;
6519;SDS011;3293;51.690;5.982;2023-06-14T15:45:52;2.30;;;2.10;;
6519;SDS011;3293;51.690;5.982;2023-06-14T15:50:53;5.20;;;3.25;;
6519;SDS011;3293;51.690;5.982;2023-06-14T15:55:53;2.63;;;1.95;;
6519;SDS011;3293;51.690;5.982;2023-06-14T16:00:53;3.95;;;2.42;;
6519;SDS011;3293;51.690;5.982;2023-06-14T16:05:53;7.18;;;3.03;;
6519;SDS011;3293;51.690;5.982;2023-06-14T16:10:54;3.88;;;2.50;;
6519;SDS011;3293;51.690;5.982;2023-06-14T16:15:54;2.33;;;2.13;;
6519;SDS011;3293;51.690;5.982;2023-06-14T16:20:55;3.10;;;2.10;;
6519;SDS011;3293;51.690;5.982;2023-06-14T16:25:56;2.58;;;2.15;;
6519;SDS011;3293;51.690;5.982;2023-06-14T16:30:57;2.22;;;2.00;;
6519;SDS011;3293;51.690;5.982;2023-06-14T16:35:57;4.53;;;2.33;;
6519;SDS011;3293;51.690;5.982;2023-06-14T16:40:58;3.58;;;2.45;;
6519;SDS011;3293;51.690;5.982;2023-06-14T16:46:00;6.30;;;2.28;;
6519;SDS011;3293;51.690;5.982;2023-06-14T16:51:02;5.22;;;2.67;;
6519;SDS011;3293;51.690;5.982;2023-06-14T16:56:04;4.32;;;2.53;;
6519;SDS011;3293;51.690;5.982;2023-06-14T17:01:07;3.30;;;2.45;;
6519;SDS011;3293;51.690;5.982;2023-06-14T17:06:08;3.05;;;2.70;;
6519;SDS011;3293;51.690;5.982;2023-06-14T17:11:08;3.05;;;2.35;;
6519;SDS011;3293;51.690;5.982;2023-06-14T17:16:09;3.17;;;2.75;;
6519;SDS011;3293;51.690;5.982;2023-06-14T17:21:11;4.95;;;2.50;;
6519;SDS011;3293;51.690;5.982;2023-06-14T17:26:19;4.43;;;2.40;;
6519;SDS011;3293;51.690;5.982;2023-06-14T17:31:19;4.25;;;2.75;;
6519;SDS011;3293;51.690;5.982;2023-06-14T17:36:21;4.43;;;2.40;;
6519;SDS011;3293;51.690;5.982;2023-06-14T17:41:21;3.70;;;2.35;;
6519;SDS011;3293;51.690;5.982;2023-06-14T17:46:25;4.25;;;2.50;;
6519;SDS011;3293;51.690;5.982;2023-06-14T17:51:26;3.45;;;2.50;;
6519;SDS011;3293;51.690;5.982;2023-06-14T17:56:26;3.22;;;2.60;;
6519;SDS011;3293;51.690;5.982;2023-06-14T18:01:27;4.55;;;2.60;;
6519;SDS011;3293;51.690;5.982;2023-06-14T18:06:27;5.25;;;2.65;;
6519;SDS011;3293;51.690;5.982;2023-06-14T18:11:28;3.58;;;2.70;;
6519;SDS011;3293;51.690;5.982;2023-06-14T18:16:30;4.03;;;2.40;;
6519;SDS011;3293;51.690;5.982;2023-06-14T18:21:33;3.15;;;2.42;;
6519;SDS011;3293;51.690;5.982;2023-06-14T18:26:33;2.92;;;2.28;;
6519;SDS011;3293;51.690;5.982;2023-06-14T18:31:33;7.80;;;2.53;;
6519;SDS011;3293;51.690;5.982;2023-06-14T18:36:33;3.53;;;2.42;;
6519;SDS011;3293;51.690;5.982;2023-06-14T18:41:33;4.95;;;2.55;;
6519;SDS011;3293;51.690;5.982;2023-06-14T18:46:34;3.20;;;2.90;;
6519;SDS011;3293;51.690;5.982;2023-06-14T18:51:34;2.45;;;2.22;;
6519;SDS011;3293;51.690;5.982;2023-06-14T18:56:38;3.72;;;2.53;;
6519;SDS011;3293;51.690;5.982;2023-06-14T19:01:38;4.30;;;2.80;;
6519;SDS011;3293;51.690;5.982;2023-06-14T19:06:37;3.45;;;2.53;;
6519;SDS011;3293;51.690;5.982;2023-06-14T19:11:37;2.80;;;2.60;;
6519;SDS011;3293;51.690;5.982;2023-06-14T19:16:39;6.50;;;2.78;;
6519;SDS011;3293;51.690;5.982;2023-06-14T19:21:41;7.15;;;2.80;;
6519;SDS011;3293;51.690;5.982;2023-06-14T19:26:42;6.78;;;2.63;;
6519;SDS011;3293;51.690;5.982;2023-06-14T19:31:42;4.22;;;2.60;;
6519;SDS011;3293;51.690;5.982;2023-06-14T19:36:42;6.07;;;2.85;;
6519;SDS011;3293;51.690;5.982;2023-06-14T19:41:42;4.75;;;2.72;;
6519;SDS011;3293;51.690;5.982;2023-06-14T19:46:43;3.08;;;2.78;;
6519;SDS011;3293;51.690;5.982;2023-06-14T19:51:45;2.67;;;2.30;;
6519;SDS011;3293;51.690;5.982;2023-06-14T19:56:47;6.22;;;2.80;;
6519;SDS011;3293;51.690;5.982;2023-06-14T20:01:47;4.53;;;2.75;;
6519;SDS011;3293;51.690;5.982;2023-06-14T20:06:47;3.88;;;2.80;;
6519;SDS011;3293;51.690;5.982;2023-06-14T20:11:54;4.18;;;2.97;;
6519;SDS011;3293;51.690;5.982;2023-06-14T20:16:55;5.90;;;2.45;;
6519;SDS011;3293;51.690;5.982;2023-06-14T20:21:56;3.33;;;2.72;;
6519;SDS011;3293;51.690;5.982;2023-06-14T20:26:57;4.50;;;2.70;;
6519;SDS011;3293;51.690;5.982;2023-06-14T20:31:57;4.97;;;2.75;;
6519;SDS011;3293;51.690;5.982;2023-06-14T20:36:59;2.97;;;2.60;;
6519;SDS011;3293;51.690;5.982;2023-06-14T20:41:59;3.08;;;2.80;;
6519;SDS011;3293;51.690;5.982;2023-06-14T20:47:00;4.00;;;2.88;;
6519;SDS011;3293;51.690;5.982;2023-06-14T20:52:03;4.95;;;2.88;;
6519;SDS011;3293;51.690;5.982;2023-06-14T20:57:09;5.05;;;2.95;;
6519;SDS011;3293;51.690;5.982;2023-06-14T21:02:13;5.75;;;3.22;;
6519;SDS011;3293;51.690;5.982;2023-06-14T21:07:18;6.35;;;3.10;;
6519;SDS011;3293;51.690;5.982;2023-06-14T21:12:20;3.47;;;3.17;;
6519;SDS011;3293;51.690;5.982;2023-06-14T21:17:21;4.80;;;3.47;;
6519;SDS011;3293;51.690;5.982;2023-06-14T21:22:22;5.03;;;2.80;;
6519;SDS011;3293;51.690;5.982;2023-06-14T21:27:26;3.53;;;3.10;;
6519;SDS011;3293;51.690;5.982;2023-06-14T21:32:30;3.13;;;2.75;;
6519;SDS011;3293;51.690;5.982;2023-06-14T21:37:33;3.65;;;3.00;;
6519;SDS011;3293;51.690;5.982;2023-06-14T21:42:34;6.68;;;3.13;;
6519;SDS011;3293;51.690;5.982;2023-06-14T21:47:40;4.45;;;2.78;;
6519;SDS011;3293;51.690;5.982;2023-06-14T21:52:45;3.30;;;3.00;;
6519;SDS011;3293;51.690;5.982;2023-06-14T21:57:49;3.22;;;2.92;;
6519;SDS011;3293;51.690;5.982;2023-06-14T22:02:50;6.32;;;3.10;;
6519;SDS011;3293;51.690;5.982;2023-06-14T22:07:52;3.70;;;2.75;;
6519;SDS011;3293;51.690;5.982;2023-06-14T22:12:56;3.67;;;2.95;;
6519;SDS011;3293;51.690;5.982;2023-06-14T22:18:00;2.70;;;2.50;;
6519;SDS011;3293;51.690;5.982;2023-06-14T22:23:00;3.47;;;3.17;;
6519;SDS011;3293;51.690;5.982;2023-06-14T22:28:03;3.20;;;2.90;;
6519;SDS011;3293;51.690;5.982;2023-06-14T22:33:06;3.85;;;3.17;;
6519;SDS011;3293;51.690;5.982;2023-06-14T22:38:06;9.23;;;2.80;;
6519;SDS011;3293;51.690;5.982;2023-06-14T22:43:07;3.95;;;2.78;;
6519;SDS011;3293;51.690;5.982;2023-06-14T22:48:09;2.83;;;2.63;;
6519;SDS011;3293;51.690;5.982;2023-06-14T22:53:09;2.92;;;2.70;;
6519;SDS011;3293;51.690;5.982;2023-06-14T22:58:10;4.07;;;2.60;;
6519;SDS011;3293;51.690;5.982;2023-06-14T23:03:15;5.10;;;2.95;;
6519;SDS011;3293;51.690;5.982;2023-06-14T23:08:16;4.55;;;2.95;;
6519;SDS011;3293;51.690;5.982;2023-06-14T23:13:17;5.32;;;3.00;;
6519;SDS011;3293;51.690;5.982;2023-06-14T23:18:18;3.90;;;2.70;;
6519;SDS011;3293;51.690;5.982;2023-06-14T23:23:20;4.25;;;2.95;;
6519;SDS011;3293;51.690;5.982;2023-06-14T23:28:20;3.10;;;2.90;;
6519;SDS011;3293;51.690;5.982;2023-06-14T23:33:21;4.57;;;2.90;;
6519;SDS011;3293;51.690;5.982;2023-06-14T23:38:23;3.30;;;2.58;;
6519;SDS011;3293;51.690;5.982;2023-06-14T23:43:24;4.05;;;3.20;;
6519;SDS011;3293;51.690;5.982;2023-06-14T23:48:26;4.70;;;2.80;;
6519;SDS011;3293;51.690;5.982;2023-06-14T23:53:26;3.92;;;2.80;;
6519;SDS011;3293;51.690;5.982;2023-06-14T23:58:28;3.65;;;3.08;;
